sensor_id;sensor_type;location;lat;lon;timestamp;pressure;altitude;pressure_sealevel;temperature;humidity
62791;BME280;48830;53.426;10.300;2023-05-03T00:00:33;102763.88;;;5.80;100.00
62791;BME280;48830;53.426;10.300;2023-05-03T00:02:59;102767.31;;;5.80;100.00
62791;BME280;48830;53.426;10.300;2023-05-03T00:05:25;102770.56;;;5.78;100.00
62791;BME280;48830;53.426;10.300;2023-05-03T00:07:50;102764.25;;;5.73;100.00
62791;BME280;48830;53.426;10.300;2023-05-03T00:10:16;102762.28;;;5.69;100.00
62791;BME280;48830;53.426;10.300;2023-05-03T00:12:42;102769.63;;;5.64;100.00
62791;BME280;48830;53.426;10.300;2023-05-03T00:15:09;102768.31;;;5.58;100.00
62791;BME280;48830;53.426;10.300;2023-05-03T00:17:35;102766.94;;;5.49;100.00
62791;BME280;48830;53.426;10.300;2023-05-03T00:20:02;102757.09;;;5.42;100.00
62791;BME280;48830;53.426;10.300;2023-05-03T00:22:28;102762.34;;;5.32;100.00
62791;BME280;48830;53.426;10.300;2023-05-03T00:24:54;102760.66;;;5.33;100.00
62791;BME280;48830;53.426;10.300;2023-05-03T00:27:21;102761.13;;;5.27;100.00
62791;BME280;48830;53.426;10.300;2023-05-03T00:29:49;102764.28;;;5.23;100.00
62791;BME280;48830;53.426;10.300;2023-05-03T00:32:15;102767.16;;;5.16;100.00
62791;BME280;48830;53.426;10.300;2023-05-03T00:34:41;102759.31;;;5.13;100.00
62791;BME280;48830;53.426;10.300;2023-05-03T00:37:06;102756.38;;;5.07;100.00
62791;BME280;48830;53.426;10.300;2023-05-03T00:39:33;102756.81;;;5.01;100.00
62791;BME280;48830;53.426;10.300;2023-05-03T00:41:59;102757.94;;;4.93;100.00
62791;BME280;48830;53.426;10.300;2023-05-03T00:44:25;102765.47;;;4.91;100.00
62791;BME280;48830;53.426;10.300;2023-05-03T00:46:51;102762.19;;;4.81;100.00
62791;BME280;48830;53.426;10.300;2023-05-03T00:49:17;102769.94;;;4.82;100.00
62791;BME280;48830;53.426;10.300;2023-05-03T00:51:42;102773.91;;;4.79;100.00
62791;BME280;48830;53.426;10.300;2023-05-03T00:54:09;102766.81;;;4.86;100.00
62791;BME280;48830;53.426;10.300;2023-05-03T00:56:37;102771.69;;;4.83;100.00
62791;BME280;48830;53.426;10.300;2023-05-03T00:59:03;102761.50;;;4.83;100.00
62791;BME280;48830;53.426;10.300;2023-05-03T01:01:30;102767.72;;;4.87;100.00
62791;BME280;48830;53.426;10.300;2023-05-03T01:03:59;102770.34;;;4.88;100.00
62791;BME280;48830;53.426;10.300;2023-05-03T01:09:09;102771.91;;;4.86;100.00
62791;BME280;48830;53.426;10.300;2023-05-03T01:12:13;102767.38;;;4.82;100.00
62791;BME280;48830;53.426;10.300;2023-05-03T01:15:06;102760.19;;;4.77;100.00
62791;BME280;48830;53.426;10.300;2023-05-03T01:17:48;102764.19;;;4.73;100.00
62791;BME280;48830;53.426;10.300;2023-05-03T01:20:18;102767.06;;;4.66;100.00
62791;BME280;48830;53.426;10.300;2023-05-03T01:23:14;102775.16;;;4.72;100.00
62791;BME280;48830;53.426;10.300;2023-05-03T01:25:42;102780.78;;;4.68;100.00
62791;BME280;48830;53.426;10.300;2023-05-03T01:28:08;102781.56;;;4.67;100.00
62791;BME280;48830;53.426;10.300;2023-05-03T01:30:35;102780.16;;;4.59;100.00
62791;BME280;48830;53.426;10.300;2023-05-03T01:33:33;102791.59;;;4.52;100.00
62791;BME280;48830;53.426;10.300;2023-05-03T01:36:22;102790.56;;;4.50;100.00
62791;BME280;48830;53.426;10.300;2023-05-03T01:38:50;102791.88;;;4.45;100.00
62791;BME280;48830;53.426;10.300;2023-05-03T01:41:17;102799.19;;;4.40;100.00
62791;BME280;48830;53.426;10.300;2023-05-03T01:43:45;102802.06;;;4.33;100.00
62791;BME280;48830;53.426;10.300;2023-05-03T01:46:13;102793.91;;;4.26;100.00
62791;BME280;48830;53.426;10.300;2023-05-03T01:48:39;102797.00;;;4.21;100.00
62791;BME280;48830;53.426;10.300;2023-05-03T01:51:04;102797.88;;;4.22;100.00
62791;BME280;48830;53.426;10.300;2023-05-03T01:53:30;102794.88;;;4.16;100.00
62791;BME280;48830;53.426;10.300;2023-05-03T01:55:55;102798.94;;;4.14;100.00
62791;BME280;48830;53.426;10.300;2023-05-03T01:58:21;102797.97;;;4.12;100.00
62791;BME280;48830;53.426;10.300;2023-05-03T02:00:46;102794.19;;;4.07;100.00
62791;BME280;48830;53.426;10.300;2023-05-03T02:03:12;102799.06;;;4.04;100.00
62791;BME280;48830;53.426;10.300;2023-05-03T02:05:37;102799.63;;;4.00;100.00
62791;BME280;48830;53.426;10.300;2023-05-03T02:08:03;102797.94;;;3.88;100.00
62791;BME280;48830;53.426;10.300;2023-05-03T02:10:28;102793.59;;;3.87;100.00
62791;BME280;48830;53.426;10.300;2023-05-03T02:12:54;102801.22;;;3.87;100.00
62791;BME280;48830;53.426;10.300;2023-05-03T02:15:19;102798.47;;;3.84;100.00
62791;BME280;48830;53.426;10.300;2023-05-03T02:17:45;102800.78;;;3.81;100.00
62791;BME280;48830;53.426;10.300;2023-05-03T02:20:12;102806.63;;;3.80;100.00
62791;BME280;48830;53.426;10.300;2023-05-03T02:22:37;102811.50;;;3.77;100.00
62791;BME280;48830;53.426;10.300;2023-05-03T02:25:03;102809.84;;;3.78;100.00
62791;BME280;48830;53.426;10.300;2023-05-03T02:27:29;102803.63;;;3.74;100.00
62791;BME280;48830;53.426;10.300;2023-05-03T02:29:54;102812.56;;;3.69;100.00
62791;BME280;48830;53.426;10.300;2023-05-03T02:32:21;102807.28;;;3.66;100.00
62791;BME280;48830;53.426;10.300;2023-05-03T02:34:47;102811.22;;;3.62;100.00
62791;BME280;48830;53.426;10.300;2023-05-03T02:37:17;102811.69;;;3.68;100.00
62791;BME280;48830;53.426;10.300;2023-05-03T02:39:43;102811.00;;;3.71;100.00
62791;BME280;48830;53.426;10.300;2023-05-03T02:42:11;102816.09;;;3.71;100.00
62791;BME280;48830;53.426;10.300;2023-05-03T02:44:36;102816.09;;;3.71;100.00
62791;BME280;48830;53.426;10.300;2023-05-03T02:47:01;102820.19;;;3.69;100.00
62791;BME280;48830;53.426;10.300;2023-05-03T02:49:28;102821.31;;;3.73;100.00
62791;BME280;48830;53.426;10.300;2023-05-03T02:51:53;102817.22;;;3.75;100.00
62791;BME280;48830;53.426;10.300;2023-05-03T02:54:21;102818.38;;;3.78;100.00
62791;BME280;48830;53.426;10.300;2023-05-03T02:56:47;102823.34;;;3.77;100.00
62791;BME280;48830;53.426;10.300;2023-05-03T02:59:12;102820.81;;;3.77;100.00
62791;BME280;48830;53.426;10.300;2023-05-03T03:01:38;102824.50;;;3.70;100.00
62791;BME280;48830;53.426;10.300;2023-05-03T03:04:05;102821.19;;;3.71;100.00
62791;BME280;48830;53.426;10.300;2023-05-03T03:06:30;102823.00;;;3.72;100.00
62791;BME280;48830;53.426;10.300;2023-05-03T03:08:57;102824.75;;;3.73;100.00
62791;BME280;48830;53.426;10.300;2023-05-03T03:11:22;102826.53;;;3.74;100.00
62791;BME280;48830;53.426;10.300;2023-05-03T03:13:48;102814.06;;;3.77;100.00
62791;BME280;48830;53.426;10.300;2023-05-03T03:16:14;102826.97;;;3.80;100.00
62791;BME280;48830;53.426;10.300;2023-05-03T03:18:39;102825.66;;;3.85;100.00
62791;BME280;48830;53.426;10.300;2023-05-03T03:21:06;102826.81;;;3.89;100.00
62791;BME280;48830;53.426;10.300;2023-05-03T03:23:33;102823.72;;;3.93;100.00
62791;BME280;48830;53.426;10.300;2023-05-03T03:25:58;102824.91;;;3.98;100.00
62791;BME280;48830;53.426;10.300;2023-05-03T03:28:24;102833.03;;;4.04;100.00
62791;BME280;48830;53.426;10.300;2023-05-03T03:30:50;102827.53;;;4.10;100.00
62791;BME280;48830;53.426;10.300;2023-05-03T03:33:21;102824.41;;;4.14;100.00
62791;BME280;48830;53.426;10.300;2023-05-03T03:35:46;102829.72;;;4.17;100.00
62791;BME280;48830;53.426;10.300;2023-05-03T03:38:12;102830.19;;;4.23;100.00
62791;BME280;48830;53.426;10.300;2023-05-03T03:40:45;102831.19;;;4.25;100.00
62791;BME280;48830;53.426;10.300;2023-05-03T03:43:10;102832.38;;;4.30;100.00
62791;BME280;48830;53.426;10.300;2023-05-03T03:45:36;102829.31;;;4.34;100.00
62791;BME280;48830;53.426;10.300;2023-05-03T03:48:04;102834.41;;;4.34;100.00
62791;BME280;48830;53.426;10.300;2023-05-03T03:50:30;102828.66;;;4.37;100.00
62791;BME280;48830;53.426;10.300;2023-05-03T03:52:55;102828.31;;;4.44;100.00
62791;BME280;48830;53.426;10.300;2023-05-03T03:55:21;102827.66;;;4.46;100.00
62791;BME280;48830;53.426;10.300;2023-05-03T03:57:49;102831.31;;;4.50;100.00
62791;BME280;48830;53.426;10.300;2023-05-03T04:00:15;102829.78;;;4.52;100.00
62791;BME280;48830;53.426;10.300;2023-05-03T04:02:47;102832.88;;;4.60;100.00
62791;BME280;48830;53.426;10.300;2023-05-03T04:05:16;102830.41;;;4.61;100.00
62791;BME280;48830;53.426;10.300;2023-05-03T04:07:43;102835.84;;;4.66;100.00
62791;BME280;48830;53.426;10.300;2023-05-03T04:10:10;102833.53;;;4.69;100.00
62791;BME280;48830;53.426;10.300;2023-05-03T04:12:37;102823.34;;;4.69;100.00
62791;BME280;48830;53.426;10.300;2023-05-03T04:15:03;102830.66;;;4.76;100.00
62791;BME280;48830;53.426;10.300;2023-05-03T04:17:29;102818.00;;;4.78;100.00
62791;BME280;48830;53.426;10.300;2023-05-03T04:19:56;102822.44;;;4.80;100.00
62791;BME280;48830;53.426;10.300;2023-05-03T04:22:22;102832.28;;;4.87;100.00
62791;BME280;48830;53.426;10.300;2023-05-03T04:24:47;102835.28;;;4.93;100.00
62791;BME280;48830;53.426;10.300;2023-05-03T04:27:14;102828.63;;;4.95;100.00
62791;BME280;48830;53.426;10.300;2023-05-03T04:29:40;102826.09;;;4.95;100.00
62791;BME280;48830;53.426;10.300;2023-05-03T04:32:06;102834.72;;;4.97;100.00
62791;BME280;48830;53.426;10.300;2023-05-03T04:34:33;102830.84;;;5.03;100.00
62791;BME280;48830;53.426;10.300;2023-05-03T04:37:01;102833.03;;;5.10;100.00
62791;BME280;48830;53.426;10.300;2023-05-03T04:39:27;102839.00;;;5.22;100.00
62791;BME280;48830;53.426;10.300;2023-05-03T04:41:53;102840.09;;;5.25;100.00
62791;BME280;48830;53.426;10.300;2023-05-03T04:44:18;102846.94;;;5.26;100.00
62791;BME280;48830;53.426;10.300;2023-05-03T04:46:47;102844.72;;;5.31;100.00
62791;BME280;48830;53.426;10.300;2023-05-03T04:49:13;102850.25;;;5.37;100.00
62791;BME280;48830;53.426;10.300;2023-05-03T04:51:39;102846.94;;;5.38;100.00
62791;BME280;48830;53.426;10.300;2023-05-03T04:54:04;102854.53;;;5.50;100.00
62791;BME280;48830;53.426;10.300;2023-05-03T04:56:30;102854.97;;;5.56;100.00
62791;BME280;48830;53.426;10.300;2023-05-03T04:59:07;102851.06;;;5.61;100.00
62791;BME280;48830;53.426;10.300;2023-05-03T05:01:32;102862.16;;;5.62;100.00
62791;BME280;48830;53.426;10.300;2023-05-03T05:04:01;102861.59;;;5.66;100.00
62791;BME280;48830;53.426;10.300;2023-05-03T05:06:33;102873.00;;;5.71;100.00
62791;BME280;48830;53.426;10.300;2023-05-03T05:09:00;102865.84;;;5.78;100.00
62791;BME280;48830;53.426;10.300;2023-05-03T05:11:25;102870.25;;;5.81;100.00
62791;BME280;48830;53.426;10.300;2023-05-03T05:13:51;102867.38;;;5.88;100.00
62791;BME280;48830;53.426;10.300;2023-05-03T05:16:17;102867.13;;;5.97;100.00
62791;BME280;48830;53.426;10.300;2023-05-03T05:18:49;102869.78;;;5.98;100.00
62791;BME280;48830;53.426;10.300;2023-05-03T05:21:15;102874.13;;;6.13;100.00
62791;BME280;48830;53.426;10.300;2023-05-03T05:23:41;102876.53;;;6.23;100.00
62791;BME280;48830;53.426;10.300;2023-05-03T05:26:06;102878.81;;;6.31;100.00
62791;BME280;48830;53.426;10.300;2023-05-03T05:28:32;102887.97;;;6.41;100.00
62791;BME280;48830;53.426;10.300;2023-05-03T05:30:58;102882.56;;;6.37;100.00
62791;BME280;48830;53.426;10.300;2023-05-03T05:33:24;102884.16;;;6.48;100.00
62791;BME280;48830;53.426;10.300;2023-05-03T05:35:51;102886.53;;;6.58;100.00
62791;BME280;48830;53.426;10.300;2023-05-03T05:38:19;102889.94;;;6.58;100.00
62791;BME280;48830;53.426;10.300;2023-05-03T05:40:45;102887.31;;;6.70;100.00
62791;BME280;48830;53.426;10.300;2023-05-03T05:43:10;102890.63;;;6.82;100.00
62791;BME280;48830;53.426;10.300;2023-05-03T05:45:38;102897.44;;;6.82;100.00
62791;BME280;48830;53.426;10.300;2023-05-03T05:48:04;102898.13;;;6.79;100.00
62791;BME280;48830;53.426;10.300;2023-05-03T05:50:30;102900.19;;;6.98;100.00
62791;BME280;48830;53.426;10.300;2023-05-03T05:53:00;102900.06;;;7.10;100.00
62791;BME280;48830;53.426;10.300;2023-05-03T05:55:30;102898.19;;;7.21;100.00
62791;BME280;48830;53.426;10.300;2023-05-03T05:57:57;102889.84;;;7.23;100.00
62791;BME280;48830;53.426;10.300;2023-05-03T06:00:27;102898.97;;;7.33;100.00
62791;BME280;48830;53.426;10.300;2023-05-03T06:02:54;102903.97;;;7.45;100.00
62791;BME280;48830;53.426;10.300;2023-05-03T06:05:21;102900.28;;;7.54;100.00
62791;BME280;48830;53.426;10.300;2023-05-03T06:07:47;102904.19;;;7.62;100.00
62791;BME280;48830;53.426;10.300;2023-05-03T06:10:13;102909.88;;;7.72;100.00
62791;BME280;48830;53.426;10.300;2023-05-03T06:12:43;102901.88;;;7.80;100.00
62791;BME280;48830;53.426;10.300;2023-05-03T06:15:13;102898.97;;;7.89;100.00
62791;BME280;48830;53.426;10.300;2023-05-03T06:17:39;102907.03;;;7.95;100.00
62791;BME280;48830;53.426;10.300;2023-05-03T06:20:05;102910.50;;;8.10;100.00
62791;BME280;48830;53.426;10.300;2023-05-03T06:22:31;102897.44;;;8.21;100.00
62791;BME280;48830;53.426;10.300;2023-05-03T06:24:57;102901.53;;;8.32;100.00
62791;BME280;48830;53.426;10.300;2023-05-03T06:27:23;102907.84;;;8.37;100.00
62791;BME280;48830;53.426;10.300;2023-05-03T06:29:50;102902.63;;;8.50;100.00
62791;BME280;48830;53.426;10.300;2023-05-03T06:32:17;102917.72;;;8.75;100.00
62791;BME280;48830;53.426;10.300;2023-05-03T06:34:43;102906.75;;;9.24;100.00
62791;BME280;48830;53.426;10.300;2023-05-03T06:37:08;102916.59;;;9.47;100.00
62791;BME280;48830;53.426;10.300;2023-05-03T06:39:34;102912.19;;;9.61;98.34
62791;BME280;48830;53.426;10.300;2023-05-03T06:41:59;102918.94;;;9.75;96.66
62791;BME280;48830;53.426;10.300;2023-05-03T06:44:32;102921.75;;;9.63;96.28
62791;BME280;48830;53.426;10.300;2023-05-03T06:46:58;102922.63;;;9.64;97.05
62791;BME280;48830;53.426;10.300;2023-05-03T06:49:23;102931.22;;;9.64;97.62
62791;BME280;48830;53.426;10.300;2023-05-03T06:51:49;102933.66;;;9.46;95.27
62791;BME280;48830;53.426;10.300;2023-05-03T06:54:16;102931.59;;;9.56;95.74
62791;BME280;48830;53.426;10.300;2023-05-03T06:56:41;102926.97;;;9.81;94.23
62791;BME280;48830;53.426;10.300;2023-05-03T06:59:07;102927.09;;;10.00;94.77
62791;BME280;48830;53.426;10.300;2023-05-03T07:01:33;102924.06;;;10.08;93.03
62791;BME280;48830;53.426;10.300;2023-05-03T07:03:59;102919.88;;;10.26;92.91
62791;BME280;48830;53.426;10.300;2023-05-03T07:06:25;102934.22;;;10.55;89.58
62791;BME280;48830;53.426;10.300;2023-05-03T07:08:51;102926.34;;;10.52;86.62
62791;BME280;48830;53.426;10.300;2023-05-03T07:11:18;102928.41;;;10.59;85.54
62791;BME280;48830;53.426;10.300;2023-05-03T07:13:46;102924.25;;;10.61;83.27
62791;BME280;48830;53.426;10.300;2023-05-03T07:16:12;102924.94;;;10.41;85.10
62791;BME280;48830;53.426;10.300;2023-05-03T07:18:37;102923.25;;;10.59;80.99
62791;BME280;48830;53.426;10.300;2023-05-03T07:21:03;102919.97;;;10.62;79.10
62791;BME280;48830;53.426;10.300;2023-05-03T07:23:31;102919.97;;;10.62;79.69
62791;BME280;48830;53.426;10.300;2023-05-03T07:25:56;102917.63;;;10.66;79.74
62791;BME280;48830;53.426;10.300;2023-05-03T07:28:22;102914.75;;;10.26;81.38
62791;BME280;48830;53.426;10.300;2023-05-03T07:30:47;102924.69;;;10.36;79.83
62791;BME280;48830;53.426;10.300;2023-05-03T07:33:13;102919.47;;;10.35;79.41
62791;BME280;48830;53.426;10.300;2023-05-03T07:35:38;102922.78;;;10.66;79.74
62791;BME280;48830;53.426;10.300;2023-05-03T07:38:04;102913.53;;;10.19;77.88
62791;BME280;48830;53.426;10.300;2023-05-03T07:40:29;102916.56;;;10.45;77.43
62791;BME280;48830;53.426;10.300;2023-05-03T07:42:58;102913.19;;;10.64;75.96
62791;BME280;48830;53.426;10.300;2023-05-03T07:45:24;102916.00;;;10.68;75.18
62791;BME280;48830;53.426;10.300;2023-05-03T07:47:50;102923.19;;;10.75;74.99
62791;BME280;48830;53.426;10.300;2023-05-03T07:50:15;102913.59;;;10.71;74.12
62791;BME280;48830;53.426;10.300;2023-05-03T07:52:41;102913.44;;;10.68;75.30
62791;BME280;48830;53.426;10.300;2023-05-03T07:55:07;102904.84;;;10.68;75.79
62791;BME280;48830;53.426;10.300;2023-05-03T07:57:33;102912.56;;;10.68;74.26
62791;BME280;48830;53.426;10.300;2023-05-03T07:59:58;102912.97;;;10.59;75.48
62791;BME280;48830;53.426;10.300;2023-05-03T08:02:24;102915.84;;;10.65;75.65
62791;BME280;48830;53.426;10.300;2023-05-03T08:04:50;102914.53;;;10.73;75.80
62791;BME280;48830;53.426;10.300;2023-05-03T08:07:15;102915.47;;;10.75;74.83
62791;BME280;48830;53.426;10.300;2023-05-03T08:09:43;102923.59;;;10.83;74.33
62791;BME280;48830;53.426;10.300;2023-05-03T08:12:09;102913.66;;;10.91;74.65
62791;BME280;48830;53.426;10.300;2023-05-03T08:14:35;102917.50;;;10.99;73.61
62791;BME280;48830;53.426;10.300;2023-05-03T08:17:01;102919.69;;;11.09;72.64
62791;BME280;48830;53.426;10.300;2023-05-03T08:19:29;102921.31;;;11.25;71.27
62791;BME280;48830;53.426;10.300;2023-05-03T08:21:54;102922.06;;;11.42;71.29
62791;BME280;48830;53.426;10.300;2023-05-03T08:24:20;102916.81;;;11.58;70.84
62791;BME280;48830;53.426;10.300;2023-05-03T08:26:46;102917.53;;;11.55;68.21
62791;BME280;48830;53.426;10.300;2023-05-03T08:29:13;102922.28;;;11.46;67.81
62791;BME280;48830;53.426;10.300;2023-05-03T08:31:39;102925.09;;;11.70;67.76
62791;BME280;48830;53.426;10.300;2023-05-03T08:34:05;102927.19;;;11.79;67.27
62791;BME280;48830;53.426;10.300;2023-05-03T08:36:32;102915.59;;;11.69;67.92
62791;BME280;48830;53.426;10.300;2023-05-03T08:39:01;102924.06;;;11.85;66.65
62791;BME280;48830;53.426;10.300;2023-05-03T08:41:29;102924.31;;;11.91;66.49
62791;BME280;48830;53.426;10.300;2023-05-03T08:43:55;102916.84;;;11.97;64.33
62791;BME280;48830;53.426;10.300;2023-05-03T08:46:21;102919.41;;;12.16;63.71
62791;BME280;48830;53.426;10.300;2023-05-03T08:48:48;102915.75;;;12.11;61.04
62791;BME280;48830;53.426;10.300;2023-05-03T08:51:15;102920.81;;;12.29;61.63
62791;BME280;48830;53.426;10.300;2023-05-03T08:53:41;102925.34;;;12.34;62.13
62791;BME280;48830;53.426;10.300;2023-05-03T08:56:11;102931.50;;;11.98;60.70
62791;BME280;48830;53.426;10.300;2023-05-03T08:58:38;102924.84;;;12.03;60.46
62791;BME280;48830;53.426;10.300;2023-05-03T09:01:05;102930.41;;;12.12;59.73
62791;BME280;48830;53.426;10.300;2023-05-03T09:03:31;102937.13;;;12.08;59.33
62791;BME280;48830;53.426;10.300;2023-05-03T09:05:57;102939.28;;;12.19;59.13
62791;BME280;48830;53.426;10.300;2023-05-03T09:08:29;102936.41;;;12.32;59.31
62791;BME280;48830;53.426;10.300;2023-05-03T09:10:56;102943.66;;;12.41;60.35
62791;BME280;48830;53.426;10.300;2023-05-03T09:13:31;102936.59;;;12.37;57.02
62791;BME280;48830;53.426;10.300;2023-05-03T09:15:57;102936.66;;;12.59;57.15
62791;BME280;48830;53.426;10.300;2023-05-03T09:18:23;102937.25;;;13.16;56.56
62791;BME280;48830;53.426;10.300;2023-05-03T09:20:49;102939.56;;;13.08;57.51
62791;BME280;48830;53.426;10.300;2023-05-03T09:23:28;102949.94;;;13.10;55.20
62791;BME280;48830;53.426;10.300;2023-05-03T09:26:04;102937.53;;;13.22;55.38
62791;BME280;48830;53.426;10.300;2023-05-03T09:28:40;102943.72;;;13.26;54.89
62791;BME280;48830;53.426;10.300;2023-05-03T09:31:06;102952.34;;;13.26;56.39
62791;BME280;48830;53.426;10.300;2023-05-03T09:33:32;102943.94;;;13.32;54.54
62791;BME280;48830;53.426;10.300;2023-05-03T09:36:04;102950.22;;;13.38;56.37
62791;BME280;48830;53.426;10.300;2023-05-03T09:38:31;102949.09;;;13.32;56.03
62791;BME280;48830;53.426;10.300;2023-05-03T09:40:58;102950.56;;;13.48;57.03
62791;BME280;48830;53.426;10.300;2023-05-03T09:43:24;102953.75;;;13.63;57.02
62791;BME280;48830;53.426;10.300;2023-05-03T09:45:49;102944.16;;;13.60;55.68
62791;BME280;48830;53.426;10.300;2023-05-03T09:48:15;102945.84;;;13.60;55.30
62791;BME280;48830;53.426;10.300;2023-05-03T09:50:41;102934.13;;;13.68;55.13
62791;BME280;48830;53.426;10.300;2023-05-03T09:53:08;102935.94;;;13.48;53.84
62791;BME280;48830;53.426;10.300;2023-05-03T09:55:38;102939.63;;;13.55;55.56
62791;BME280;48830;53.426;10.300;2023-05-03T09:58:05;102941.41;;;13.33;55.01
62791;BME280;48830;53.426;10.300;2023-05-03T10:00:39;102931.34;;;13.63;56.38
62791;BME280;48830;53.426;10.300;2023-05-03T10:03:10;102932.59;;;13.73;54.48
62791;BME280;48830;53.426;10.300;2023-05-03T10:05:45;102931.69;;;13.97;53.83
62791;BME280;48830;53.426;10.300;2023-05-03T10:08:18;102930.28;;;14.05;54.30
62791;BME280;48830;53.426;10.300;2023-05-03T10:10:44;102928.53;;;14.29;53.26
62791;BME280;48830;53.426;10.300;2023-05-03T10:13:12;102921.66;;;14.30;52.87
62791;BME280;48830;53.426;10.300;2023-05-03T10:15:38;102927.31;;;14.43;52.59
62791;BME280;48830;53.426;10.300;2023-05-03T10:18:07;102926.38;;;14.67;51.93
62791;BME280;48830;53.426;10.300;2023-05-03T10:20:40;102931.81;;;15.30;50.16
62791;BME280;48830;53.426;10.300;2023-05-03T10:23:08;102912.41;;;15.74;49.99
62791;BME280;48830;53.426;10.300;2023-05-03T10:25:37;102927.13;;;16.40;48.94
62791;BME280;48830;53.426;10.300;2023-05-03T10:28:07;102925.47;;;16.42;47.33
62791;BME280;48830;53.426;10.300;2023-05-03T10:30:37;102920.00;;;16.66;47.08
62791;BME280;48830;53.426;10.300;2023-05-03T10:35:39;102921.47;;;15.30;48.13
62791;BME280;48830;53.426;10.300;2023-05-03T10:38:16;102917.53;;;15.71;48.77
62791;BME280;48830;53.426;10.300;2023-05-03T10:40:44;102913.69;;;15.90;49.01
62791;BME280;48830;53.426;10.300;2023-05-03T10:45:55;102909.94;;;16.11;48.35
62791;BME280;48830;53.426;10.300;2023-05-03T10:48:21;102914.09;;;16.72;47.92
62791;BME280;48830;53.426;10.300;2023-05-03T10:50:47;102906.00;;;17.35;46.92
62791;BME280;48830;53.426;10.300;2023-05-03T10:56:08;102906.53;;;16.13;46.72
62791;BME280;48830;53.426;10.300;2023-05-03T10:58:45;102899.00;;;15.91;48.44
62791;BME280;48830;53.426;10.300;2023-05-03T11:01:12;102898.69;;;15.20;48.73
62791;BME280;48830;53.426;10.300;2023-05-03T11:06:09;102904.59;;;17.10;47.53
62791;BME280;48830;53.426;10.300;2023-05-03T11:08:34;102898.00;;;16.87;46.67
62791;BME280;48830;53.426;10.300;2023-05-03T11:11:03;102891.94;;;17.25;46.03
62791;BME280;48830;53.426;10.300;2023-05-03T11:13:37;102892.94;;;17.74;46.14
62791;BME280;48830;53.426;10.300;2023-05-03T11:16:03;102888.91;;;17.48;45.11
62791;BME280;48830;53.426;10.300;2023-05-03T11:18:32;102887.28;;;17.95;45.18
62791;BME280;48830;53.426;10.300;2023-05-03T11:20:57;102883.81;;;17.96;45.41
62791;BME280;48830;53.426;10.300;2023-05-03T11:23:28;102888.81;;;17.43;44.77
62791;BME280;48830;53.426;10.300;2023-05-03T11:25:54;102880.25;;;17.90;45.67
62791;BME280;48830;53.426;10.300;2023-05-03T11:28:25;102877.44;;;18.27;43.64
62791;BME280;48830;53.426;10.300;2023-05-03T11:30:50;102884.91;;;18.60;45.54
62791;BME280;48830;53.426;10.300;2023-05-03T11:33:16;102886.56;;;18.55;44.69
62791;BME280;48830;53.426;10.300;2023-05-03T11:35:41;102890.59;;;18.35;44.07
62791;BME280;48830;53.426;10.300;2023-05-03T11:38:08;102897.50;;;18.87;43.90
62791;BME280;48830;53.426;10.300;2023-05-03T11:40:34;102891.34;;;18.82;44.26
62791;BME280;48830;53.426;10.300;2023-05-03T11:43:01;102892.06;;;19.33;44.05
62791;BME280;48830;53.426;10.300;2023-05-03T11:45:31;102895.97;;;19.00;43.39
62791;BME280;48830;53.426;10.300;2023-05-03T11:47:57;102889.44;;;18.69;43.58
62791;BME280;48830;53.426;10.300;2023-05-03T11:53:16;102882.31;;;18.60;44.43
62791;BME280;48830;53.426;10.300;2023-05-03T11:55:44;102870.00;;;19.09;44.77
62791;BME280;48830;53.426;10.300;2023-05-03T11:58:21;102880.91;;;16.96;45.52
62791;BME280;48830;53.426;10.300;2023-05-03T12:00:56;102890.09;;;16.13;46.64
62791;BME280;48830;53.426;10.300;2023-05-03T12:03:24;102885.25;;;16.97;47.26
62791;BME280;48830;53.426;10.300;2023-05-03T12:05:51;102888.63;;;16.93;45.98
62791;BME280;48830;53.426;10.300;2023-05-03T12:08:19;102886.94;;;17.35;45.53
62791;BME280;48830;53.426;10.300;2023-05-03T12:10:47;102884.06;;;16.48;45.78
62791;BME280;48830;53.426;10.300;2023-05-03T12:13:13;102868.94;;;17.45;45.86
62791;BME280;48830;53.426;10.300;2023-05-03T12:15:39;102874.41;;;17.59;46.16
62791;BME280;48830;53.426;10.300;2023-05-03T12:18:10;102867.28;;;18.44;45.54
62791;BME280;48830;53.426;10.300;2023-05-03T12:20:37;102880.56;;;18.59;44.22
62791;BME280;48830;53.426;10.300;2023-05-03T12:23:04;102873.00;;;17.75;44.74
62791;BME280;48830;53.426;10.300;2023-05-03T12:25:33;102869.81;;;18.38;45.10
62791;BME280;48830;53.426;10.300;2023-05-03T12:28:00;102867.03;;;18.29;43.56
62791;BME280;48830;53.426;10.300;2023-05-03T12:30:27;102861.78;;;18.26;44.00
62791;BME280;48830;53.426;10.300;2023-05-03T12:32:53;102862.16;;;18.50;43.85
62791;BME280;48830;53.426;10.300;2023-05-03T12:35:19;102862.16;;;18.50;43.38
62791;BME280;48830;53.426;10.300;2023-05-03T12:37:45;102853.22;;;18.33;44.38
62791;BME280;48830;53.426;10.300;2023-05-03T12:40:11;102855.63;;;18.74;45.47
62791;BME280;48830;53.426;10.300;2023-05-03T12:42:41;102857.78;;;17.95;43.53
62791;BME280;48830;53.426;10.300;2023-05-03T12:45:07;102855.06;;;18.40;44.24
62791;BME280;48830;53.426;10.300;2023-05-03T12:47:33;102849.19;;;18.52;44.39
62791;BME280;48830;53.426;10.300;2023-05-03T12:50:01;102842.81;;;18.89;43.65
62791;BME280;48830;53.426;10.300;2023-05-03T12:52:27;102847.13;;;18.87;44.08
62791;BME280;48830;53.426;10.300;2023-05-03T12:54:54;102841.28;;;19.05;43.15
62791;BME280;48830;53.426;10.300;2023-05-03T12:57:19;102840.94;;;17.74;44.04